createdAt,value
2023-05-04T00:00:29.981Z,10.70
2023-05-04T00:03:16.662Z,12.85
2023-05-04T00:05:46.903Z,11.10
2023-05-04T00:10:47.658Z,9.80
2023-05-04T00:13:18.737Z,11.05
2023-05-04T00:15:50.739Z,9.30
2023-05-04T00:18:22.044Z,9.65
2023-05-04T00:20:52.178Z,10.15
2023-05-04T00:23:22.776Z,9.45
2023-05-04T00:25:52.918Z,8.80
2023-05-04T00:28:24.458Z,8.32
2023-05-04T00:30:57.749Z,7.32
2023-05-04T00:33:28.859Z,7.65
2023-05-04T00:35:58.881Z,7.10
2023-05-04T00:38:29.747Z,7.20
2023-05-04T00:41:01.616Z,7.63
2023-05-04T00:43:32.690Z,7.45
2023-05-04T00:46:04.517Z,7.30
2023-05-04T00:48:35.522Z,7.22
2023-05-04T00:51:06.973Z,7.93
2023-05-04T00:53:38.779Z,7.95
2023-05-04T00:56:09.919Z,7.00
2023-05-04T00:58:40.951Z,6.75
2023-05-04T01:01:12.711Z,7.10
2023-05-04T01:03:44.129Z,6.35
2023-05-04T01:06:22.146Z,8.75
2023-05-04T01:09:00.794Z,6.95
2023-05-04T01:11:39.153Z,6.95
2023-05-04T01:14:12.492Z,11.50
2023-05-04T01:16:44.631Z,7.60
2023-05-04T01:19:17.045Z,7.45
2023-05-04T01:21:49.172Z,7.55
2023-05-04T01:24:20.661Z,8.75
2023-05-04T01:26:55.974Z,7.30
2023-05-04T01:29:37.081Z,8.48
2023-05-04T01:32:08.506Z,7.82
2023-05-04T01:34:41.613Z,8.23
2023-05-04T01:37:13.612Z,9.07
2023-05-04T01:39:44.403Z,8.75
2023-05-04T01:42:14.492Z,10.13
2023-05-04T01:44:45.611Z,8.57
2023-05-04T01:47:15.761Z,8.37
2023-05-04T01:52:17.962Z,8.80
2023-05-04T01:54:48.929Z,9.93
2023-05-04T01:57:19.248Z,11.17
2023-05-04T01:59:50.132Z,8.73
2023-05-04T02:02:20.329Z,8.40
2023-05-04T02:04:51.398Z,9.73
2023-05-04T02:07:23.303Z,9.40
2023-05-04T02:09:54.229Z,9.90
2023-05-04T02:12:24.743Z,8.47
2023-05-04T02:14:56.465Z,8.90
2023-05-04T02:17:26.841Z,8.45
2023-05-04T02:19:58.072Z,9.13
2023-05-04T02:22:29.784Z,8.77
2023-05-04T02:25:00.933Z,9.98
2023-05-04T02:27:31.051Z,10.10
2023-05-04T02:32:32.241Z,9.70
2023-05-04T02:37:34.520Z,9.73
2023-05-04T02:40:06.736Z,9.80
2023-05-04T02:42:37.278Z,9.52
2023-05-04T02:45:09.870Z,9.35
2023-05-04T02:47:40.268Z,11.27
2023-05-04T02:50:11.989Z,9.60
2023-05-04T02:52:43.704Z,11.35
2023-05-04T02:55:14.735Z,11.82
2023-05-04T02:57:44.917Z,10.20
2023-05-04T03:00:16.255Z,11.68
2023-05-04T03:02:46.625Z,8.95
2023-05-04T03:05:17.850Z,10.98
2023-05-04T03:07:49.499Z,10.67
2023-05-04T03:10:20.473Z,10.02
2023-05-04T03:12:50.910Z,10.18
2023-05-04T03:15:22.070Z,8.75
2023-05-04T03:17:52.484Z,10.55
2023-05-04T03:20:23.949Z,9.25
2023-05-04T03:25:26.556Z,9.60
2023-05-04T03:27:58.596Z,10.07
2023-05-04T03:30:29.578Z,8.60
2023-05-04T03:33:00.222Z,8.70
2023-05-04T03:35:30.841Z,8.27
2023-05-04T03:38:02.849Z,9.77
2023-05-04T03:40:33.690Z,9.82
2023-05-04T03:43:04.970Z,8.45
2023-05-04T03:45:35.916Z,8.70
2023-05-04T03:48:06.757Z,8.43
2023-05-04T03:50:38.587Z,7.93
2023-05-04T03:53:10.280Z,10.88
2023-05-04T03:55:42.773Z,8.02
2023-05-04T03:58:13.163Z,8.13
2023-05-04T04:03:13.755Z,7.00
2023-05-04T04:05:44.487Z,7.90
2023-05-04T04:08:16.495Z,7.80
2023-05-04T04:10:47.458Z,7.88
2023-05-04T04:13:18.349Z,8.20
2023-05-04T04:15:49.028Z,7.32
2023-05-04T04:18:19.745Z,7.13
2023-05-04T04:20:51.234Z,7.57
2023-05-04T04:23:23.162Z,6.68
2023-05-04T04:25:54.479Z,6.40
2023-05-04T04:28:24.606Z,7.45
2023-05-04T04:30:55.554Z,5.90
2023-05-04T04:33:26.071Z,6.93
2023-05-04T04:35:57.081Z,6.10
2023-05-04T04:38:29.176Z,5.67
2023-05-04T04:41:00.234Z,6.57
2023-05-04T04:43:30.828Z,6.43
2023-05-04T04:46:02.650Z,5.97
2023-05-04T04:48:33.230Z,5.72
2023-05-04T04:51:04.850Z,5.88
2023-05-04T04:53:36.824Z,5.53
2023-05-04T04:56:08.295Z,5.93
2023-05-04T04:58:39.070Z,5.72
2023-05-04T05:01:10.132Z,5.60
2023-05-04T05:03:40.366Z,6.60
2023-05-04T05:06:11.829Z,4.50
2023-05-04T05:08:44.514Z,4.45
2023-05-04T05:11:15.995Z,4.78
2023-05-04T05:13:46.649Z,4.90
2023-05-04T05:16:17.994Z,4.78
2023-05-04T05:18:48.436Z,3.85
2023-05-04T05:21:19.138Z,3.28
2023-05-04T05:23:51.018Z,2.83
2023-05-04T05:26:22.444Z,3.20
2023-05-04T05:28:52.828Z,2.92
2023-05-04T05:31:23.543Z,2.53
2023-05-04T05:33:53.828Z,3.63
2023-05-04T05:36:24.980Z,3.08
2023-05-04T05:38:57.198Z,2.70
2023-05-04T05:41:27.999Z,1.95
2023-05-04T05:43:58.454Z,2.25
2023-05-04T05:46:30.174Z,1.73
2023-05-04T05:51:31.138Z,2.30
2023-05-04T05:54:02.945Z,1.45
2023-05-04T05:56:34.027Z,1.98
2023-05-04T05:59:04.721Z,1.63
2023-05-04T06:01:35.700Z,2.17
2023-05-04T06:04:06.305Z,2.20
2023-05-04T06:06:37.103Z,2.40
2023-05-04T06:09:09.420Z,1.88
2023-05-04T06:11:40.200Z,2.20
2023-05-04T06:14:10.688Z,2.65
2023-05-04T06:16:42.154Z,2.80
2023-05-04T06:19:12.515Z,2.55
2023-05-04T06:21:43.480Z,1.80
2023-05-04T06:24:15.549Z,1.88
2023-05-04T06:26:46.789Z,2.20
2023-05-04T06:29:17.421Z,1.95
2023-05-04T06:31:48.647Z,1.45
2023-05-04T06:34:19.455Z,1.45
2023-05-04T06:36:51.552Z,3.25
2023-05-04T06:39:23.460Z,2.33
2023-05-04T06:41:56.875Z,1.92
2023-05-04T06:44:27.370Z,2.33
2023-05-04T06:46:58.382Z,2.40
2023-05-04T06:49:28.876Z,1.63
2023-05-04T06:54:32.328Z,2.47
2023-05-04T06:57:05.066Z,2.78
2023-05-04T06:59:34.566Z,2.03
2023-05-04T07:02:04.206Z,3.13
2023-05-04T07:04:34.228Z,2.42
2023-05-04T07:07:04.242Z,3.38
2023-05-04T07:09:35.387Z,2.20
2023-05-04T07:12:05.665Z,2.20
2023-05-04T07:14:34.969Z,2.15
2023-05-04T07:17:04.630Z,1.92
2023-05-04T07:19:33.884Z,2.72
2023-05-04T07:22:03.791Z,1.80
2023-05-04T07:24:34.569Z,2.42
2023-05-04T07:27:05.440Z,1.80
2023-05-04T07:29:34.929Z,1.67
2023-05-04T07:32:04.703Z,1.30
2023-05-04T07:34:45.115Z,2.20
2023-05-04T07:39:47.171Z,1.65
2023-05-04T07:42:17.015Z,2.05
2023-05-04T07:44:49.925Z,1.80
2023-05-04T07:47:19.992Z,1.77
2023-05-04T07:49:49.261Z,1.65
2023-05-04T07:52:19.158Z,2.90
2023-05-04T07:54:52.889Z,1.90
2023-05-04T07:57:23.335Z,1.45
2023-05-04T07:59:56.192Z,1.90
2023-05-04T08:02:26.363Z,1.73
2023-05-04T08:04:56.474Z,1.67
2023-05-04T08:07:26.075Z,2.13
2023-05-04T08:09:57.176Z,2.08
2023-05-04T08:12:27.304Z,1.98
2023-05-04T08:14:56.589Z,1.70
2023-05-04T08:17:26.319Z,1.63
2023-05-04T08:19:55.719Z,2.30
2023-05-04T08:22:25.891Z,1.13
2023-05-04T08:24:56.624Z,1.50
2023-05-04T08:27:26.620Z,1.85
2023-05-04T08:29:55.916Z,1.80
2023-05-04T08:32:25.631Z,1.70
2023-05-04T08:34:54.915Z,1.52
2023-05-04T08:37:24.555Z,1.92
2023-05-04T08:39:53.906Z,1.50
2023-05-04T08:42:32.464Z,1.90
2023-05-04T08:45:02.708Z,1.70
2023-05-04T08:47:32.573Z,3.33
2023-05-04T08:50:02.031Z,1.55
2023-05-04T08:52:32.690Z,2.35
2023-05-04T08:55:02.109Z,1.58
2023-05-04T08:57:34.860Z,1.35
2023-05-04T09:00:05.795Z,1.42
2023-05-04T09:02:36.750Z,1.23
2023-05-04T09:05:08.290Z,1.27
2023-05-04T09:07:38.050Z,1.50
2023-05-04T09:10:08.327Z,1.17
2023-05-04T09:12:40.206Z,1.77
2023-05-04T09:15:19.127Z,2.33
2023-05-04T09:17:58.446Z,1.27
2023-05-04T09:20:27.917Z,2.08
2023-05-04T09:23:07.316Z,1.00
2023-05-04T09:26:21.092Z,1.50
2023-05-04T09:29:15.100Z,1.17
2023-05-04T09:31:45.793Z,1.73
2023-05-04T09:34:16.094Z,1.35
2023-05-04T09:36:45.564Z,1.67
2023-05-04T09:39:16.185Z,1.30
2023-05-04T09:41:45.440Z,1.65
2023-05-04T09:44:29.902Z,1.40
2023-05-04T09:47:00.264Z,1.73
2023-05-04T09:52:04.053Z,2.13
2023-05-04T09:54:38.344Z,1.02
2023-05-04T09:57:13.605Z,1.52
2023-05-04T09:59:45.070Z,2.05
2023-05-04T10:02:22.723Z,1.58
2023-05-04T10:04:54.350Z,1.70
2023-05-04T10:07:24.075Z,1.30
2023-05-04T10:09:54.982Z,1.30
2023-05-04T10:12:24.297Z,1.35
2023-05-04T10:14:55.732Z,1.35
2023-05-04T10:17:36.679Z,0.90
2023-05-04T10:20:25.772Z,1.85
2023-05-04T10:23:11.757Z,1.20
2023-05-04T10:26:07.036Z,1.30
2023-05-04T10:28:49.747Z,2.40
2023-05-04T10:31:23.036Z,1.50
2023-05-04T10:33:53.702Z,2.28
2023-05-04T10:36:24.363Z,1.38
2023-05-04T10:38:54.910Z,2.38
2023-05-04T10:41:25.769Z,2.90
2023-05-04T10:44:05.906Z,3.10
2023-05-04T10:49:17.991Z,3.30
2023-05-04T10:51:49.604Z,3.25
2023-05-04T10:54:21.990Z,3.60
2023-05-04T10:57:02.092Z,3.00
2023-05-04T10:59:31.401Z,3.27
2023-05-04T11:02:03.287Z,3.20
2023-05-04T11:04:33.381Z,3.30
2023-05-04T11:07:05.402Z,3.00
2023-05-04T11:09:39.172Z,2.67
2023-05-04T11:12:11.092Z,3.35
2023-05-04T11:14:43.472Z,2.30
2023-05-04T11:19:53.050Z,1.90
2023-05-04T11:22:22.829Z,1.30
2023-05-04T11:24:53.322Z,1.70
2023-05-04T11:27:28.934Z,1.48
2023-05-04T11:29:59.197Z,1.35
2023-05-04T11:32:43.075Z,1.92
2023-05-04T11:35:17.579Z,2.58
2023-05-04T11:37:49.914Z,2.10
2023-05-04T11:40:22.183Z,3.03
2023-05-04T11:42:52.905Z,2.33
2023-05-04T11:45:25.015Z,2.33
2023-05-04T11:47:56.973Z,2.05
2023-05-04T11:50:27.465Z,2.50
2023-05-04T11:53:06.703Z,2.40
2023-05-04T11:55:36.628Z,2.92
2023-05-04T11:58:07.990Z,2.10
2023-05-04T12:00:40.120Z,1.85
2023-05-04T12:03:14.118Z,2.47
2023-05-04T12:05:49.735Z,2.25
2023-05-04T12:08:30.989Z,2.47
2023-05-04T12:13:47.654Z,2.33
2023-05-04T12:16:18.650Z,2.45
2023-05-04T12:18:50.260Z,2.25
2023-05-04T12:21:21.709Z,2.33
2023-05-04T12:23:51.485Z,2.50
2023-05-04T12:26:21.120Z,2.40
2023-05-04T12:28:51.631Z,1.90
2023-05-04T12:31:21.628Z,2.17
2023-05-04T12:33:54.538Z,1.90
2023-05-04T12:36:24.629Z,1.63
2023-05-04T12:38:54.534Z,2.38
2023-05-04T12:41:24.383Z,2.70
2023-05-04T12:43:54.381Z,1.98
2023-05-04T12:46:23.634Z,2.47
2023-05-04T12:48:54.941Z,1.95
2023-05-04T12:51:24.292Z,1.83
2023-05-04T12:53:54.305Z,1.70
2023-05-04T12:56:23.587Z,2.78
2023-05-04T12:58:53.644Z,2.00
2023-05-04T13:01:22.946Z,1.97
2023-05-04T13:03:54.053Z,2.20
2023-05-04T13:06:23.240Z,2.13
2023-05-04T13:08:52.860Z,2.20
2023-05-04T13:11:22.114Z,1.70
2023-05-04T13:13:51.681Z,1.70
2023-05-04T13:16:21.106Z,1.92
2023-05-04T13:18:50.769Z,1.85
2023-05-04T13:21:21.885Z,1.95
2023-05-04T13:23:51.524Z,2.17
2023-05-04T13:26:20.753Z,2.30
2023-05-04T13:28:51.910Z,2.00
2023-05-04T13:31:21.240Z,2.53
2023-05-04T13:33:51.553Z,2.35
2023-05-04T13:36:22.221Z,3.13
2023-05-04T13:38:51.885Z,2.60
2023-05-04T13:41:21.966Z,2.92
2023-05-04T13:43:51.557Z,2.85
2023-05-04T13:46:21.656Z,2.70
2023-05-04T13:48:51.406Z,2.10
2023-05-04T13:51:22.273Z,2.30
2023-05-04T13:53:51.857Z,2.70
2023-05-04T13:56:21.153Z,2.20
2023-05-04T13:58:51.241Z,2.13
2023-05-04T14:01:21.069Z,2.90
2023-05-04T14:03:51.222Z,2.30
2023-05-04T14:06:22.360Z,2.45
2023-05-04T14:08:52.323Z,2.08
2023-05-04T14:11:22.830Z,1.73
2023-05-04T14:13:53.906Z,2.28
2023-05-04T14:16:24.087Z,2.20
2023-05-04T14:18:53.862Z,1.65
2023-05-04T14:21:25.016Z,1.98
2023-05-04T14:23:56.139Z,2.25
2023-05-04T14:26:25.468Z,2.03
2023-05-04T14:28:55.098Z,1.90
2023-05-04T14:31:24.323Z,2.00
2023-05-04T14:33:56.642Z,1.80
2023-05-04T14:36:27.727Z,1.77
2023-05-04T14:38:58.516Z,2.08
2023-05-04T14:41:28.380Z,1.73
2023-05-04T14:43:58.416Z,2.00
2023-05-04T14:46:27.745Z,1.90
2023-05-04T14:48:58.027Z,1.92
2023-05-04T14:51:30.286Z,1.90
2023-05-04T14:54:01.351Z,2.15
2023-05-04T14:56:31.583Z,1.75
2023-05-04T14:59:01.901Z,2.30
2023-05-04T15:01:31.201Z,2.03
2023-05-04T15:04:01.739Z,1.75
2023-05-04T15:06:34.201Z,2.20
2023-05-04T15:09:05.088Z,1.60
2023-05-04T15:11:34.302Z,1.80
2023-05-04T15:14:04.081Z,1.90
2023-05-04T15:16:33.509Z,1.75
2023-05-04T15:19:03.445Z,1.70
2023-05-04T15:21:34.569Z,2.33
2023-05-04T15:24:04.200Z,1.98
2023-05-04T15:26:34.964Z,2.05
2023-05-04T15:29:07.223Z,2.65
2023-05-04T15:31:36.528Z,2.03
2023-05-04T15:34:06.242Z,2.17
2023-05-04T15:36:37.317Z,2.47
2023-05-04T15:39:08.740Z,2.65
2023-05-04T15:41:38.436Z,2.17
2023-05-04T15:44:08.594Z,2.70
2023-05-04T15:46:37.866Z,2.35
2023-05-04T15:49:07.565Z,2.30
2023-05-04T15:51:38.303Z,3.13
2023-05-04T15:54:07.961Z,2.80
2023-05-04T15:56:37.614Z,2.78
2023-05-04T15:59:07.716Z,2.13
2023-05-04T16:01:37.781Z,2.70
2023-05-04T16:04:07.500Z,3.20
2023-05-04T16:06:38.689Z,2.45
2023-05-04T16:09:09.276Z,2.65
2023-05-04T16:11:39.034Z,2.58
2023-05-04T16:14:09.067Z,2.90
2023-05-04T16:16:38.421Z,2.03
2023-05-04T16:19:09.531Z,1.73
2023-05-04T16:21:42.460Z,2.72
2023-05-04T16:24:14.288Z,2.30
2023-05-04T16:26:43.564Z,1.98
2023-05-04T16:29:14.153Z,2.58
2023-05-04T16:31:43.379Z,2.20
2023-05-04T16:34:12.942Z,2.45
2023-05-04T16:36:44.355Z,2.60
2023-05-04T16:39:14.862Z,2.35
2023-05-04T16:41:46.872Z,2.22
2023-05-04T16:44:16.969Z,2.33
2023-05-04T16:46:46.655Z,2.33
2023-05-04T16:49:16.310Z,3.05
2023-05-04T16:51:47.103Z,2.55
2023-05-04T16:54:16.999Z,3.05
2023-05-04T16:56:46.620Z,3.05
2023-05-04T16:59:16.751Z,2.67
2023-05-04T17:01:46.085Z,2.45
2023-05-04T17:04:16.245Z,2.60
2023-05-04T17:06:47.233Z,2.33
2023-05-04T17:09:16.889Z,2.00
2023-05-04T17:11:46.506Z,2.35
2023-05-04T17:14:16.429Z,2.92
2023-05-04T17:16:45.711Z,2.00
2023-05-04T17:19:15.889Z,2.33
2023-05-04T17:21:46.672Z,2.67
2023-05-04T17:24:16.683Z,1.83
2023-05-04T17:26:46.096Z,3.63
2023-05-04T17:29:16.095Z,3.40
2023-05-04T17:31:45.349Z,2.88
2023-05-04T17:34:15.399Z,2.63
2023-05-04T17:36:44.841Z,2.38
2023-05-04T17:39:18.963Z,2.28
2023-05-04T17:41:49.134Z,1.75
2023-05-04T17:44:19.064Z,1.83
2023-05-04T17:46:48.865Z,2.50
2023-05-04T17:49:20.108Z,2.40
2023-05-04T17:51:49.829Z,1.98
2023-05-04T17:54:21.441Z,3.00
2023-05-04T17:59:19.943Z,2.60
2023-05-04T18:01:49.428Z,2.92
2023-05-04T18:04:19.461Z,3.15
2023-05-04T18:06:50.786Z,2.55
2023-05-04T18:09:22.485Z,3.35
2023-05-04T18:14:21.773Z,3.60
2023-05-04T18:16:51.559Z,3.83
2023-05-04T18:19:24.939Z,2.90
2023-05-04T18:21:54.152Z,3.92
2023-05-04T18:24:25.407Z,3.42
2023-05-04T18:26:55.482Z,2.88
2023-05-04T18:29:26.296Z,2.50
2023-05-04T18:31:55.638Z,2.55
2023-05-04T18:34:25.690Z,4.73
2023-05-04T18:36:55.466Z,3.38
2023-05-04T18:39:27.084Z,3.15
2023-05-04T18:41:56.459Z,2.90
2023-05-04T18:44:26.120Z,4.38
2023-05-04T18:46:55.786Z,3.58
2023-05-04T18:49:25.720Z,3.63
2023-05-04T18:51:54.986Z,3.28
2023-05-04T18:54:26.480Z,2.22
2023-05-04T18:56:55.716Z,2.60
2023-05-04T18:59:25.296Z,2.40
2023-05-04T19:01:55.141Z,2.08
2023-05-04T19:04:25.058Z,2.08
2023-05-04T19:06:54.310Z,1.95
2023-05-04T19:09:23.923Z,2.30
2023-05-04T19:11:55.103Z,1.88
2023-05-04T19:14:25.498Z,1.92
2023-05-04T19:16:54.939Z,1.75
2023-05-04T19:19:24.609Z,2.00
2023-05-04T19:21:53.846Z,2.13
2023-05-04T19:24:23.659Z,2.05
2023-05-04T19:26:54.524Z,2.70
2023-05-04T19:29:24.240Z,2.38
2023-05-04T19:31:53.519Z,3.03
2023-05-04T19:34:23.136Z,2.97
2023-05-04T19:36:52.453Z,3.10
2023-05-04T19:39:22.699Z,3.65
2023-05-04T19:41:54.587Z,3.40
2023-05-04T19:44:25.268Z,3.63
2023-05-04T19:46:54.887Z,4.10
2023-05-04T19:49:25.321Z,4.10
2023-05-04T19:51:54.732Z,5.63
2023-05-04T19:54:25.233Z,5.45
2023-05-04T19:56:56.045Z,4.90
2023-05-04T19:59:26.055Z,5.10
2023-05-04T20:01:55.457Z,4.22
2023-05-04T20:04:25.659Z,4.80
2023-05-04T20:06:54.970Z,5.10
2023-05-04T20:09:24.568Z,5.78
2023-05-04T20:11:55.543Z,5.10
2023-05-04T20:14:25.192Z,4.28
2023-05-04T20:16:56.023Z,4.22
2023-05-04T20:19:25.801Z,4.35
2023-05-04T20:21:55.181Z,4.07
2023-05-04T20:24:25.538Z,4.20
2023-05-04T20:26:56.294Z,4.28
2023-05-04T20:29:26.659Z,3.50
2023-05-04T20:31:56.382Z,3.78
2023-05-04T20:34:26.425Z,3.30
2023-05-04T20:36:55.993Z,3.13
2023-05-04T20:39:25.685Z,2.88
2023-05-04T20:41:56.473Z,2.63
2023-05-04T20:44:26.506Z,2.97
2023-05-04T20:46:55.843Z,3.40
2023-05-04T20:49:25.518Z,2.80
2023-05-04T20:51:54.790Z,3.13
2023-05-04T20:54:24.512Z,3.33
2023-05-04T20:56:53.796Z,2.53
2023-05-04T20:59:24.853Z,2.47
2023-05-04T21:01:54.349Z,2.47
2023-05-04T21:04:24.077Z,2.28
2023-05-04T21:06:53.559Z,2.13
2023-05-04T21:09:23.719Z,2.60
2023-05-04T21:11:53.043Z,2.03
2023-05-04T21:14:24.613Z,2.15
2023-05-04T21:16:53.847Z,1.65
2023-05-04T21:19:23.880Z,2.30
2023-05-04T21:21:53.115Z,2.17
2023-05-04T21:24:23.577Z,2.15
2023-05-04T21:26:53.172Z,2.30
2023-05-04T21:29:24.246Z,2.42
2023-05-04T21:31:53.590Z,1.98
2023-05-04T21:34:23.291Z,1.73
2023-05-04T21:36:53.145Z,1.92
2023-05-04T21:39:23.298Z,2.00
2023-05-04T21:41:52.756Z,2.40
2023-05-04T21:44:23.847Z,1.92
2023-05-04T21:46:53.509Z,3.25
2023-05-04T21:49:23.236Z,1.80
2023-05-04T21:51:52.461Z,4.40
2023-05-04T21:54:24.164Z,2.80
2023-05-04T21:59:24.812Z,1.33
2023-05-04T22:01:54.019Z,1.27
2023-05-04T22:04:23.630Z,1.85
2023-05-04T22:06:52.989Z,1.52
2023-05-04T22:09:22.632Z,1.45
2023-05-04T22:11:52.158Z,1.48
2023-05-04T22:14:22.278Z,1.85
2023-05-04T22:16:53.473Z,2.08
2023-05-04T22:19:23.362Z,3.20
2023-05-04T22:21:52.621Z,2.15
2023-05-04T22:24:22.579Z,1.80
2023-05-04T22:26:51.782Z,2.00
2023-05-04T22:29:21.766Z,2.28
2023-05-04T22:31:52.820Z,1.65
2023-05-04T22:34:22.511Z,1.83
2023-05-04T22:36:51.752Z,1.80
2023-05-04T22:39:22.294Z,1.83
2023-05-04T22:41:51.523Z,1.50
2023-05-04T22:44:21.834Z,2.00
2023-05-04T22:46:52.634Z,1.70
2023-05-04T22:49:22.295Z,1.30
2023-05-04T22:51:52.108Z,2.13
2023-05-04T22:54:21.730Z,1.43
2023-05-04T22:56:51.349Z,1.67
2023-05-04T22:59:21.193Z,1.23
2023-05-04T23:01:51.970Z,1.70
2023-05-04T23:04:22.052Z,1.88
2023-05-04T23:06:51.326Z,1.80
2023-05-04T23:09:22.031Z,1.95
2023-05-04T23:11:53.387Z,1.88
2023-05-04T23:14:23.241Z,1.73
2023-05-04T23:16:54.031Z,1.80
2023-05-04T23:19:23.862Z,2.10
2023-05-04T23:21:53.142Z,1.90
2023-05-04T23:24:23.094Z,1.85
2023-05-04T23:26:52.551Z,2.00
2023-05-04T23:29:22.254Z,2.17
2023-05-04T23:31:53.101Z,1.92
2023-05-04T23:34:23.356Z,2.10
2023-05-04T23:36:55.088Z,2.30
2023-05-04T23:39:24.753Z,2.13
2023-05-04T23:41:54.430Z,2.00
2023-05-04T23:44:24.069Z,2.38
2023-05-04T23:46:54.759Z,2.20
2023-05-04T23:51:54.459Z,2.30
2023-05-04T23:54:24.393Z,2.15
2023-05-04T23:56:53.631Z,2.45
2023-05-04T23:59:23.693Z,2.03
